Time;durP1;ratioP1;P1;durP2;ratioP2;P2;SDS_P1;SDS_P2;PMS_P1;PMS_P2;Temp;Humidity;BMP_temperature;BMP_pressure;BME280_temperature;BME280_humidity;BME280_pressure;Samples;Min_cycle;Max_cycle;Signal;HPM_P1;HPM_P2
2023/05/18 00:02:22;;;;;;;;;;;;;;;17.54;79.92;99099.25;5092757;28;19919;-41
2023/05/18 00:04:48;;;;;;;;;;;;;;;17.62;80.36;99089.88;5092752;28;19908;-41
2023/05/18 00:07:13;;;;;;;;;;;;;;;17.63;79.97;99082.59;5092776;28;20367;-42
2023/05/18 00:09:40;;;;;;;;;;;;;;;17.76;79.76;99082.09;5092708;28;19920;-41
2023/05/18 00:12:05;;;;;;;;;;;;;;;17.81;79.58;99092.88;5092316;28;19918;-41
2023/05/18 00:14:31;;;;;;;;;;;;;;;17.90;78.83;99083.22;5092802;28;19916;-40
2023/05/18 00:16:56;;;;;;;;;;;;;;;17.94;79.26;99091.56;5092652;28;19912;-41
2023/05/18 00:19:22;;;;;;;;;;;;;;;18.03;78.14;99089.16;5092458;28;19966;-41
2023/05/18 00:21:49;;;;;;;;;;;;;;;18.02;77.95;99082.16;5092601;28;19912;-42
2023/05/18 00:24:15;;;;;;;;;;;;;;;18.02;77.59;99088.34;5092477;28;19967;-42
2023/05/18 00:26:41;;;;;;;;;;;;;;;17.97;77.53;99081.09;5092475;28;19941;-41
2023/05/18 00:29:07;;;;;;;;;;;;;;;17.90;77.82;99087.81;5092041;28;19955;-41
2023/05/18 00:31:35;;;;;;;;;;;;;;;17.90;77.56;99085.91;5092357;28;20385;-41
2023/05/18 00:34:09;;;;;;;;;;;;;;;17.88;77.45;99087.28;5092511;28;19918;-41
2023/05/18 00:36:36;;;;;;;;;;;;;;;17.82;77.39;99074.81;5091491;28;19912;-41
2023/05/18 00:39:01;;;;;;;;;;;;;;;17.71;78.43;99071.34;5092146;28;19912;-41
2023/05/18 00:41:27;;;;;;;;;;;;;;;17.79;78.29;99076.97;5092102;28;19931;-41
2023/05/18 00:43:52;;;;;;;;;;;;;;;17.65;78.75;99069.69;5091971;28;20022;-41
2023/05/18 00:46:18;;;;;;;;;;;;;;;17.64;78.77;99070.78;5092160;28;19912;-41
2023/05/18 00:48:43;;;;;;;;;;;;;;;17.70;78.17;99067.00;5091995;28;19912;-41
2023/05/18 00:51:09;;;;;;;;;;;;;;;17.65;77.94;99067.00;5091801;28;19918;-41
2023/05/18 00:53:35;;;;;;;;;;;;;;;17.55;78.05;99068.63;5092275;28;20277;-41
2023/05/18 00:56:01;;;;;;;;;;;;;;;17.62;77.67;99073.72;5091798;28;20343;-47
2023/05/18 00:58:26;;;;;;;;;;;;;;;17.70;77.24;99080.47;5091710;28;19916;-47
2023/05/18 01:00:52;;;;;;;;;;;;;;;17.63;76.57;99066.44;5091767;28;19913;-47
2023/05/18 01:03:20;;;;;;;;;;;;;;;17.55;77.27;99073.16;5091769;28;19912;-47
2023/05/18 01:05:49;;;;;;;;;;;;;;;17.35;77.87;99074.72;5091847;28;19973;-47
2023/05/18 01:08:18;;;;;;;;;;;;;;;17.44;77.13;99071.53;5091812;28;19915;-47
2023/05/18 01:10:45;;;;;;;;;;;;;;;17.28;76.98;99051.84;5091611;28;20307;-47
2023/05/18 01:13:19;;;;;;;;;;;;;;;17.34;77.52;99075.81;5091635;28;19916;-47
2023/05/18 01:15:47;;;;;;;;;;;;;;;17.26;77.56;99091.66;5091406;28;19912;-47
2023/05/18 01:18:27;;;;;;;;;;;;;;;17.04;78.79;99092.63;5091229;28;20328;-47
2023/05/18 01:20:56;;;;;;;;;;;;;;;17.08;78.60;99099.09;5090917;28;19912;-47
2023/05/18 01:23:28;;;;;;;;;;;;;;;17.00;79.00;99088.81;5091628;28;19912;-46
2023/05/18 01:25:53;;;;;;;;;;;;;;;17.28;78.69;99090.28;5091132;28;19916;-46
2023/05/18 01:28:20;;;;;;;;;;;;;;;17.23;79.10;99092.16;5091273;28;19927;-47
2023/05/18 01:30:46;;;;;;;;;;;;;;;17.00;80.11;99095.03;5091482;28;19917;-47
2023/05/18 01:33:12;;;;;;;;;;;;;;;17.00;80.10;99088.81;5091085;28;20389;-47
2023/05/18 01:35:40;;;;;;;;;;;;;;;16.80;80.50;99090.31;5091107;28;19912;-47
2023/05/18 01:38:05;;;;;;;;;;;;;;;16.75;81.39;99093.00;5091346;28;19912;-47
2023/05/18 01:40:34;;;;;;;;;;;;;;;16.76;81.86;99097.28;5091124;28;20010;-47
2023/05/18 01:43:02;;;;;;;;;;;;;;;16.71;82.01;99094.56;5090953;28;19916;-47
2023/05/18 01:45:28;;;;;;;;;;;;;;;16.38;83.11;99095.69;5090912;28;19916;-47
2023/05/18 01:47:55;;;;;;;;;;;;;;;16.18;83.75;99094.47;5091242;28;19918;-47
2023/05/18 01:50:36;;;;;;;;;;;;;;;16.27;83.65;99102.84;5090982;28;19916;-47
2023/05/18 01:53:08;;;;;;;;;;;;;;;16.42;83.23;99099.47;5090779;28;19912;-47
2023/05/18 01:55:34;;;;;;;;;;;;;;;16.56;82.42;99106.03;5091024;28;19916;-47
2023/05/18 01:58:01;;;;;;;;;;;;;;;16.59;82.22;99107.38;5091059;28;19912;-47
2023/05/18 02:00:26;;;;;;;;;;;;;;;16.59;82.08;99104.69;5090952;28;19928;-47
2023/05/18 02:02:52;;;;;;;;;;;;;;;16.58;82.35;99116.50;5090041;28;19931;-47
2023/05/18 02:05:17;;;;;;;;;;;;;;;16.61;81.91;99110.63;5090943;28;20003;-47
2023/05/18 02:07:42;;;;;;;;;;;;;;;16.67;82.17;99116.84;5090841;28;19919;-47
2023/05/18 02:10:08;;;;;;;;;;;;;;;16.76;82.51;99118.78;5091009;28;19939;-47
2023/05/18 02:12:33;;;;;;;;;;;;;;;16.96;81.94;99122.69;5090974;28;19923;-47
2023/05/18 02:15:04;;;;;;;;;;;;;;;17.00;81.12;99129.13;5090733;28;20268;-47
2023/05/18 02:17:29;;;;;;;;;;;;;;;16.80;82.28;99135.19;5090003;28;19919;-47
2023/05/18 02:19:55;;;;;;;;;;;;;;;16.98;81.79;99133.97;5093559;28;19919;-47
2023/05/18 02:22:20;;;;;;;;;;;;;;;16.90;82.28;99131.78;5094681;28;19912;-47
2023/05/18 02:24:45;;;;;;;;;;;;;;;17.00;82.29;99140.72;5094686;28;19922;-47
2023/05/18 02:27:13;;;;;;;;;;;;;;;17.07;81.97;99142.38;5094423;28;19927;-47
2023/05/18 02:29:38;;;;;;;;;;;;;;;17.05;81.48;99139.94;5094764;28;20006;-47
2023/05/18 02:32:04;;;;;;;;;;;;;;;16.98;81.86;99150.94;5096509;28;19999;-47
2023/05/18 02:34:31;;;;;;;;;;;;;;;16.96;81.60;99153.06;5094533;28;19912;-47
2023/05/18 02:36:56;;;;;;;;;;;;;;;17.05;81.01;99150.69;5094545;28;19927;-47
2023/05/18 02:39:21;;;;;;;;;;;;;;;16.90;82.19;99150.59;5091511;28;19916;-47
2023/05/18 02:41:47;;;;;;;;;;;;;;;17.02;81.15;99143.16;5094491;28;19912;-47
2023/05/18 02:44:12;;;;;;;;;;;;;;;17.05;81.09;99149.88;5094409;28;19951;-46
2023/05/18 02:46:37;;;;;;;;;;;;;;;16.71;82.82;99150.97;5094324;28;20347;-47
2023/05/18 02:49:03;;;;;;;;;;;;;;;16.42;83.83;99153.19;5094267;28;20348;-47
2023/05/18 02:51:29;;;;;;;;;;;;;;;16.65;84.15;99157.38;5075629;28;19917;-47
2023/05/18 02:53:54;;;;;;;;;;;;;;;16.80;83.27;99154.00;5074036;28;19912;-47
2023/05/18 02:56:19;;;;;;;;;;;;;;;16.85;83.19;99155.94;5074157;28;19919;-47
2023/05/18 02:58:45;;;;;;;;;;;;;;;16.91;82.72;99160.28;5074244;28;19912;-47
2023/05/18 03:01:13;;;;;;;;;;;;;;;16.88;82.22;99166.16;5090765;28;19918;-47
2023/05/18 03:03:40;;;;;;;;;;;;;;;16.83;82.74;99164.28;5094076;28;19920;-47
2023/05/18 03:06:07;;;;;;;;;;;;;;;16.98;81.71;99166.22;5094185;28;19912;-47
2023/05/18 03:08:32;;;;;;;;;;;;;;;16.85;82.49;99163.97;5094271;28;19913;-47
2023/05/18 03:10:57;;;;;;;;;;;;;;;16.49;82.57;99163.72;5093826;28;19966;-47
2023/05/18 03:13:23;;;;;;;;;;;;;;;16.56;82.86;99175.03;5093743;28;19916;-47
2023/05/18 03:15:49;;;;;;;;;;;;;;;16.56;83.30;99172.34;5093862;28;19994;-47
2023/05/18 03:18:15;;;;;;;;;;;;;;;16.67;83.00;99184.00;5101768;28;19938;-47
2023/05/18 03:20:40;;;;;;;;;;;;;;;16.73;82.13;99188.31;5091550;28;19943;-46
2023/05/18 03:23:06;;;;;;;;;;;;;;;16.90;81.35;99190.91;5093770;28;19931;-46
2023/05/18 03:25:31;;;;;;;;;;;;;;;16.76;80.66;99191.31;5093792;28;20392;-47
2023/05/18 03:27:57;;;;;;;;;;;;;;;16.83;81.19;99203.75;5093316;28;19965;-47
2023/05/18 03:30:22;;;;;;;;;;;;;;;16.90;80.74;99201.66;5092046;28;19926;-47
2023/05/18 03:32:47;;;;;;;;;;;;;;;16.65;80.94;99205.72;5093491;28;19999;-47
2023/05/18 03:35:13;;;;;;;;;;;;;;;16.61;81.99;99200.06;5093609;28;20315;-47
2023/05/18 03:37:38;;;;;;;;;;;;;;;16.80;81.25;99207.72;5092362;28;20276;-47
2023/05/18 03:40:12;;;;;;;;;;;;;;;16.85;81.57;99209.66;5091742;28;19974;-47
2023/05/18 03:42:38;;;;;;;;;;;;;;;16.91;81.75;99205.97;5091939;28;19916;-47
2023/05/18 03:45:03;;;;;;;;;;;;;;;17.05;81.40;99204.44;5092465;28;19912;-47
2023/05/18 03:47:28;;;;;;;;;;;;;;;17.06;80.70;99205.25;5092564;28;19935;-47
2023/05/18 03:49:54;;;;;;;;;;;;;;;17.16;80.30;99211.50;5092533;28;20512;-47
2023/05/18 03:52:21;;;;;;;;;;;;;;;17.29;80.20;99207.56;5092658;28;19912;-47
2023/05/18 03:54:47;;;;;;;;;;;;;;;17.24;80.25;99206.72;5093095;28;19920;-47
2023/05/18 03:57:12;;;;;;;;;;;;;;;17.20;80.88;99212.59;5092773;28;20378;-46
2023/05/18 03:59:37;;;;;;;;;;;;;;;17.37;80.45;99214.31;5093079;28;19992;-47
2023/05/18 04:02:03;;;;;;;;;;;;;;;17.31;80.18;99213.47;5092854;28;19919;-48
2023/05/18 04:04:29;;;;;;;;;;;;;;;17.31;79.77;99220.75;5093006;28;20003;-48
2023/05/18 04:06:55;;;;;;;;;;;;;;;17.42;79.01;99222.41;5093148;28;19912;-48
2023/05/18 04:09:22;;;;;;;;;;;;;;;17.24;79.96;99228.22;5092741;28;20272;-48
2023/05/18 04:11:48;;;;;;;;;;;;;;;17.19;80.01;99228.97;5092962;28;19958;-48
2023/05/18 04:14:13;;;;;;;;;;;;;;;17.02;79.68;99226.47;5092999;28;19916;-47
2023/05/18 04:16:40;;;;;;;;;;;;;;;16.60;81.92;99221.78;5092624;28;20005;-43
2023/05/18 04:19:06;;;;;;;;;;;;;;;16.44;83.12;99228.13;5092762;28;20376;-43
2023/05/18 04:21:34;;;;;;;;;;;;;;;16.22;83.72;99224.41;5092441;28;19922;-43
2023/05/18 04:24:03;;;;;;;;;;;;;;;16.18;85.44;99231.38;5092684;28;19916;-42
2023/05/18 04:26:29;;;;;;;;;;;;;;;16.36;84.70;99232.06;5092625;28;20353;-44
2023/05/18 04:28:58;;;;;;;;;;;;;;;16.15;85.31;99234.53;5091742;28;20451;-42
2023/05/18 04:31:25;;;;;;;;;;;;;;;16.31;86.05;99238.19;5090572;28;19947;-43
2023/05/18 04:33:51;;;;;;;;;;;;;;;16.50;85.61;99243.22;5092395;28;19912;-42
2023/05/18 04:36:18;;;;;;;;;;;;;;;16.85;84.69;99241.91;5092107;28;20349;-42
2023/05/18 04:38:44;;;;;;;;;;;;;;;16.88;85.12;99241.41;5092112;28;20006;-42
2023/05/18 04:41:09;;;;;;;;;;;;;;;16.70;85.93;99243.41;5091672;28;19952;-43
2023/05/18 04:43:35;;;;;;;;;;;;;;;17.24;85.43;99247.84;5092056;28;19959;-43
2023/05/18 04:46:00;;;;;;;;;;;;;;;17.59;82.95;99249.94;5091583;28;20237;-43
2023/05/18 04:48:26;;;;;;;;;;;;;;;17.72;80.53;99247.84;5091886;28;20383;-43
2023/05/18 04:50:54;;;;;;;;;;;;;;;17.83;79.53;99243.31;5091652;28;19936;-43
2023/05/18 04:53:20;;;;;;;;;;;;;;;17.90;79.13;99244.72;5091533;28;20025;-42
2023/05/18 04:55:48;;;;;;;;;;;;;;;18.03;78.39;99256.03;5091830;28;19955;-44
2023/05/18 04:58:14;;;;;;;;;;;;;;;18.04;77.86;99257.69;5091258;28;20287;-42
2023/05/18 05:00:39;;;;;;;;;;;;;;;18.11;77.29;99252.88;5091525;28;20327;-43
2023/05/18 05:03:05;;;;;;;;;;;;;;;17.98;77.17;99259.53;5091719;28;20019;-43
2023/05/18 05:05:30;;;;;;;;;;;;;;;18.06;76.81;99255.53;5091778;28;19912;-42
2023/05/18 05:07:56;;;;;;;;;;;;;;;18.06;76.34;99250.94;5091670;28;20002;-42
2023/05/18 05:10:21;;;;;;;;;;;;;;;17.97;76.57;99252.53;5092081;28;19920;-42
2023/05/18 05:12:48;;;;;;;;;;;;;;;17.91;77.14;99254.38;5091932;28;19919;-42
2023/05/18 05:15:13;;;;;;;;;;;;;;;17.86;77.65;99256.25;5091641;28;20260;-42
2023/05/18 05:17:38;;;;;;;;;;;;;;;17.83;77.84;99254.06;5092228;28;20320;-42
2023/05/18 05:20:04;;;;;;;;;;;;;;;17.84;78.39;99261.94;5091446;28;19916;-43
2023/05/18 05:22:30;;;;;;;;;;;;;;;17.72;78.50;99264.78;5091794;28;19919;-44
2023/05/18 05:24:55;;;;;;;;;;;;;;;17.76;78.59;99260.50;5091560;28;19923;-43
2023/05/18 05:27:21;;;;;;;;;;;;;;;17.74;78.38;99262.66;5091590;28;19920;-42
2023/05/18 05:29:47;;;;;;;;;;;;;;;17.76;79.99;99278.53;5090978;28;20364;-43
2023/05/18 05:32:14;;;;;;;;;;;;;;;17.73;78.97;99282.56;5090247;28;20221;-42
2023/05/18 05:34:40;;;;;;;;;;;;;;;17.94;82.03;99285.38;5091049;28;19912;-45
2023/05/18 05:37:05;;;;;;;;;;;;;;;18.16;79.51;99290.56;5090199;28;19923;-43
2023/05/18 05:39:30;;;;;;;;;;;;;;;18.16;78.06;99287.88;5089945;28;19920;-41
2023/05/18 05:41:56;;;;;;;;;;;;;;;18.09;78.25;99290.81;5091183;28;19947;-42
2023/05/18 05:44:21;;;;;;;;;;;;;;;18.09;78.37;99288.13;5089525;28;20264;-42
2023/05/18 05:46:46;;;;;;;;;;;;;;;18.22;77.60;99296.75;5090138;28;19916;-43
2023/05/18 05:49:12;;;;;;;;;;;;;;;18.03;77.07;99299.13;5090038;28;19931;-42
2023/05/18 05:51:37;;;;;;;;;;;;;;;18.07;77.32;99294.84;5089936;28;19920;-43
2023/05/18 05:54:03;;;;;;;;;;;;;;;18.18;77.17;99299.19;5088941;28;19912;-42
2023/05/18 05:56:28;;;;;;;;;;;;;;;18.10;76.81;99311.25;5088750;28;19957;-43
2023/05/18 05:58:53;;;;;;;;;;;;;;;18.00;77.68;99315.81;5089003;28;19923;-43
2023/05/18 06:01:18;;;;;;;;;;;;;;;18.09;77.86;99320.44;5089623;28;19919;-42
2023/05/18 06:03:44;;;;;;;;;;;;;;;18.21;76.85;99316.72;5089863;28;20340;-41
2023/05/18 06:06:10;;;;;;;;;;;;;;;18.16;76.58;99317.47;5090734;28;19923;-44
2023/05/18 06:08:35;;;;;;;;;;;;;;;17.89;78.06;99328.41;5090287;28;19912;-43
2023/05/18 06:11:00;;;;;;;;;;;;;;;17.67;78.76;99326.66;5090763;28;19916;-43
2023/05/18 06:13:26;;;;;;;;;;;;;;;17.81;79.05;99327.00;5090541;28;19912;-42
2023/05/18 06:15:51;;;;;;;;;;;;;;;18.05;78.11;99340.03;5090672;28;19912;-42
2023/05/18 06:18:16;;;;;;;;;;;;;;;18.11;76.96;99334.44;5090552;28;19916;-43
2023/05/18 06:20:41;;;;;;;;;;;;;;;18.14;77.13;99331.22;5090528;28;19923;-43
2023/05/18 06:23:07;;;;;;;;;;;;;;;18.08;77.69;99334.94;5090453;28;20002;-42
2023/05/18 06:25:34;;;;;;;;;;;;;;;18.20;77.36;99332.06;5090114;28;19916;-42
2023/05/18 06:27:59;;;;;;;;;;;;;;;18.25;75.93;99345.53;5089991;28;20063;-42
2023/05/18 06:30:24;;;;;;;;;;;;;;;18.28;76.37;99352.28;5090736;28;19944;-42
2023/05/18 06:32:50;;;;;;;;;;;;;;;18.24;76.41;99354.69;5090102;28;20384;-42
2023/05/18 06:35:15;;;;;;;;;;;;;;;18.26;76.80;99351.72;5090403;28;19919;-43
2023/05/18 06:37:40;;;;;;;;;;;;;;;18.08;77.87;99359.19;5090211;28;20260;-44
2023/05/18 06:40:06;;;;;;;;;;;;;;;18.03;78.53;99361.03;5090233;28;19916;-43
2023/05/18 06:42:32;;;;;;;;;;;;;;;17.75;80.21;99363.03;5090210;28;20024;-45
2023/05/18 06:44:57;;;;;;;;;;;;;;;17.97;79.74;99376.34;5090660;28;20018;-43
2023/05/18 06:47:22;;;;;;;;;;;;;;;18.08;79.87;99371.84;5090538;28;19912;-43
2023/05/18 06:49:48;;;;;;;;;;;;;;;18.07;78.96;99376.44;5090306;28;19916;-42
2023/05/18 06:52:13;;;;;;;;;;;;;;;18.18;78.32;99379.97;5090260;28;19912;-41
2023/05/18 06:54:38;;;;;;;;;;;;;;;17.96;78.15;99385.53;5090162;28;19959;-41
2023/05/18 06:57:04;;;;;;;;;;;;;;;17.78;79.70;99384.84;5089848;28;19916;-41
2023/05/18 06:59:29;;;;;;;;;;;;;;;17.77;79.88;99395.88;5089892;28;19912;-41
2023/05/18 07:01:54;;;;;;;;;;;;;;;17.75;79.51;99395.31;5089876;28;20441;-41
2023/05/18 07:04:19;;;;;;;;;;;;;;;17.90;78.71;99397.34;5090050;28;19912;-41
2023/05/18 07:06:45;;;;;;;;;;;;;;;17.56;80.26;99403.00;5093783;28;20323;-41
2023/05/18 07:09:11;;;;;;;;;;;;;;;17.06;82.70;99405.00;5094029;28;20011;-41
2023/05/18 07:11:36;;;;;;;;;;;;;;;17.40;81.06;99402.03;5093437;28;20018;-42
2023/05/18 07:14:01;;;;;;;;;;;;;;;17.26;81.27;99398.97;5093277;28;19912;-41
2023/05/18 07:16:27;;;;;;;;;;;;;;;17.15;81.88;99402.63;5093131;28;19954;-42
2023/05/18 07:18:52;;;;;;;;;;;;;;;17.38;80.92;99402.31;5093279;28;19968;-43
2023/05/18 07:21:17;;;;;;;;;;;;;;;17.58;80.52;99401.66;5093145;28;19969;-40
2023/05/18 07:23:43;;;;;;;;;;;;;;;17.62;79.44;99411.91;5093239;28;19912;-42
2023/05/18 07:26:10;;;;;;;;;;;;;;;17.24;81.15;99411.88;5093404;28;20383;-42
2023/05/18 07:28:36;;;;;;;;;;;;;;;17.29;82.22;99416.50;5092841;28;19924;-41
2023/05/18 07:31:01;;;;;;;;;;;;;;;17.11;82.09;99426.53;5092893;28;19916;-41
2023/05/18 07:33:26;;;;;;;;;;;;;;;17.32;81.22;99418.66;5093015;28;19988;-41
2023/05/18 07:35:51;;;;;;;;;;;;;;;17.10;82.05;99413.34;5092490;28;19912;-41
2023/05/18 07:38:17;;;;;;;;;;;;;;;17.57;80.71;99418.03;5093662;28;20014;-41
2023/05/18 07:40:42;;;;;;;;;;;;;;;17.50;80.80;99420.97;5093540;28;19962;-41
2023/05/18 07:43:07;;;;;;;;;;;;;;;17.56;82.16;99411.88;5093627;28;19947;-41
2023/05/18 07:45:32;;;;;;;;;;;;;;;17.60;81.52;99417.53;5093111;28;20015;-42
2023/05/18 07:47:59;;;;;;;;;;;;;;;17.55;80.61;99412.13;5092545;28;20515;-41
2023/05/18 07:50:25;;;;;;;;;;;;;;;17.59;79.15;99411.34;5092298;28;19916;-40
2023/05/18 07:52:50;;;;;;;;;;;;;;;17.69;78.22;99412.50;5091420;28;19923;-45
2023/05/18 07:55:16;;;;;;;;;;;;;;;17.91;77.99;99420.47;5092544;28;19912;-48
2023/05/18 07:57:41;;;;;;;;;;;;;;;17.97;77.58;99412.19;5092287;28;20000;-41
2023/05/18 08:00:08;;;;;;;;;;;;;;;18.03;78.13;99413.03;5092182;28;19920;-41
2023/05/18 08:02:33;;;;;;;;;;;;;;;18.26;77.08;99424.44;5092088;28;19912;-41
2023/05/18 08:04:59;;;;;;;;;;;;;;;18.52;75.69;99431.59;5092439;28;19912;-41
2023/05/18 08:07:25;;;;;;;;;;;;;;;18.50;76.00;99432.91;5092160;28;19919;-41
2023/05/18 08:09:50;;;;;;;;;;;;;;;18.56;75.18;99429.16;5091525;28;20006;-41
2023/05/18 08:12:16;;;;;;;;;;;;;;;18.59;74.03;99441.31;5091929;28;19912;-42
2023/05/18 08:14:41;;;;;;;;;;;;;;;18.00;73.45;99439.66;5091729;28;19912;-42
2023/05/18 08:17:06;;;;;;;;;;;;;;;18.50;71.71;99441.78;5091207;28;19916;-39
2023/05/18 08:19:32;;;;;;;;;;;;;;;18.97;70.34;99445.50;5092064;28;19951;-36
2023/05/18 08:21:57;;;;;;;;;;;;;;;19.33;68.23;99448.25;5091946;28;19972;-36
2023/05/18 08:24:22;;;;;;;;;;;;;;;19.12;66.27;99447.41;5091625;28;19916;-37
2023/05/18 08:26:47;;;;;;;;;;;;;;;18.75;68.09;99459.13;5091656;28;20020;-37
2023/05/18 08:29:13;;;;;;;;;;;;;;;18.71;68.42;99452.66;5091634;28;20280;-35
2023/05/18 08:31:39;;;;;;;;;;;;;;;19.14;66.19;99461.44;5091409;28;19959;-37
2023/05/18 08:34:05;;;;;;;;;;;;;;;19.23;64.46;99461.72;5092300;28;20319;-37
2023/05/18 08:36:32;;;;;;;;;;;;;;;19.05;64.79;99469.22;5091671;28;20384;-36
2023/05/18 08:38:57;;;;;;;;;;;;;;;19.14;64.98;99462.25;5091610;28;19916;-35
2023/05/18 08:41:27;;;;;;;;;;;;;;;19.34;64.97;99469.56;5091407;28;19995;-36
2023/05/18 08:43:58;;;;;;;;;;;;;;;19.70;64.48;99461.50;5091213;28;19919;-36
2023/05/18 08:46:23;;;;;;;;;;;;;;;19.94;62.22;99471.75;5091238;28;19912;-36
2023/05/18 08:48:50;;;;;;;;;;;;;;;20.09;63.64;99474.44;5091470;28;19919;-36
2023/05/18 08:51:18;;;;;;;;;;;;;;;20.40;62.24;99481.66;5090992;28;20303;-36
2023/05/18 08:53:44;;;;;;;;;;;;;;;20.47;60.03;99483.00;5090959;28;19998;-36
2023/05/18 08:56:10;;;;;;;;;;;;;;;20.59;60.98;99488.06;5090071;28;19911;-36
2023/05/18 08:58:42;;;;;;;;;;;;;;;20.80;57.85;99485.34;5090478;28;19950;-36
2023/05/18 09:01:07;;;;;;;;;;;;;;;20.84;54.85;99500.72;5090271;28;19915;-36
2023/05/18 09:03:33;;;;;;;;;;;;;;;20.69;54.95;99498.91;5091012;28;19915;-36
2023/05/18 09:05:59;;;;;;;;;;;;;;;20.63;54.80;99494.56;5091175;28;19912;-36
2023/05/18 09:08:25;;;;;;;;;;;;;;;20.87;55.82;99499.38;5091142;28;20297;-36
2023/05/18 09:10:51;;;;;;;;;;;;;;;21.00;55.82;99498.75;5091051;28;19995;-37
2023/05/18 09:13:19;;;;;;;;;;;;;;;21.09;57.92;99507.09;5091101;28;19962;-37
2023/05/18 09:15:45;;;;;;;;;;;;;;;21.17;52.42;99508.41;5091247;28;19912;-36
2023/05/18 09:18:10;;;;;;;;;;;;;;;20.96;55.08;99500.41;5091361;28;19918;-35
2023/05/18 09:20:35;;;;;;;;;;;;;;;20.85;51.02;99501.53;5091085;28;19912;-36
2023/05/18 09:23:01;;;;;;;;;;;;;;;21.06;50.63;99511.16;5091360;28;19974;-36
2023/05/18 09:25:29;;;;;;;;;;;;;;;21.28;52.21;99510.78;5091104;28;19999;-36
2023/05/18 09:27:54;;;;;;;;;;;;;;;21.08;53.94;99511.69;5091207;28;19978;-36
2023/05/18 09:30:19;;;;;;;;;;;;;;;20.87;50.44;99507.47;5090525;28;19916;-36
2023/05/18 09:32:45;;;;;;;;;;;;;;;20.56;48.98;99517.56;5090827;28;19912;-35
2023/05/18 09:35:11;;;;;;;;;;;;;;;20.55;48.20;99514.03;5091132;28;19946;-36
2023/05/18 09:37:40;;;;;;;;;;;;;;;20.99;45.94;99505.25;5090992;28;19963;-36
2023/05/18 09:40:06;;;;;;;;;;;;;;;21.04;46.50;99515.25;5090983;28;20450;-35
2023/05/18 09:42:38;;;;;;;;;;;;;;;20.65;49.44;99519.44;5090662;28;20314;-35
2023/05/18 09:45:14;;;;;;;;;;;;;;;20.78;50.24;99528.06;5090461;28;19922;-35
2023/05/18 09:47:39;;;;;;;;;;;;;;;21.30;48.29;99521.31;5090386;28;19912;-35
2023/05/18 09:50:05;;;;;;;;;;;;;;;21.58;49.17;99527.94;5090398;28;19939;-36
2023/05/18 09:52:30;;;;;;;;;;;;;;;21.12;47.81;99535.50;5090508;28;19961;-37
2023/05/18 09:55:03;;;;;;;;;;;;;;;21.43;46.97;99536.94;5090518;28;19966;-36
2023/05/18 09:57:28;;;;;;;;;;;;;;;21.76;44.97;99531.03;5090422;28;19957;-36
2023/05/18 09:59:54;;;;;;;;;;;;;;;21.80;45.43;99537.50;5090417;28;20015;-36
2023/05/18 10:02:23;;;;;;;;;;;;;;;21.91;44.32;99530.91;5090295;28;19912;-36
2023/05/18 10:04:49;;;;;;;;;;;;;;;22.08;43.80;99535.13;5090412;28;19912;-35
2023/05/18 10:07:15;;;;;;;;;;;;;;;22.22;43.88;99539.59;5090550;28;19996;-35
2023/05/18 10:09:41;;;;;;;;;;;;;;;22.30;42.87;99530.06;5090418;28;19946;-36
2023/05/18 10:12:10;;;;;;;;;;;;;;;22.51;43.17;99536.09;5090485;28;19912;-36
2023/05/18 10:14:36;;;;;;;;;;;;;;;22.81;44.03;99534.13;5090342;28;20380;-35
2023/05/18 10:17:04;;;;;;;;;;;;;;;23.05;42.68;99534.13;5090314;28;20062;-35
2023/05/18 10:19:33;;;;;;;;;;;;;;;23.33;43.55;99540.53;5088538;28;19916;-36
2023/05/18 10:22:00;;;;;;;;;;;;;;;23.29;41.15;99527.84;5090268;28;20299;-36
2023/05/18 10:24:25;;;;;;;;;;;;;;;23.30;41.36;99543.81;5090634;28;19912;-36
2023/05/18 10:26:51;;;;;;;;;;;;;;;23.26;41.61;99542.78;5090349;28;19977;-37
2023/05/18 10:29:17;;;;;;;;;;;;;;;23.47;41.64;99551.47;5090426;28;20066;-35
2023/05/18 10:31:43;;;;;;;;;;;;;;;23.51;41.51;99546.25;5089942;28;20396;-35
2023/05/18 10:34:09;;;;;;;;;;;;;;;23.72;42.62;99547.56;5090157;28;19916;-35
2023/05/18 10:36:36;;;;;;;;;;;;;;;23.90;43.45;99551.38;5089669;28;19911;-37
2023/05/18 10:39:02;;;;;;;;;;;;;;;24.02;40.85;99542.75;5089751;28;19949;-35
2023/05/18 10:41:30;;;;;;;;;;;;;;;23.73;40.68;99543.75;5093574;28;19928;-35
2023/05/18 10:44:02;;;;;;;;;;;;;;;23.67;42.68;99544.13;5094509;28;19973;-36
2023/05/18 10:46:28;;;;;;;;;;;;;;;23.77;40.78;99547.47;5094111;28;19970;-35
2023/05/18 10:48:54;;;;;;;;;;;;;;;23.93;39.12;99547.25;5093962;28;19912;-37
2023/05/18 10:51:20;;;;;;;;;;;;;;;23.66;41.50;99554.16;5092710;28;19927;-36
2023/05/18 10:53:46;;;;;;;;;;;;;;;23.84;43.02;99559.91;5093355;28;19912;-37
2023/05/18 10:56:14;;;;;;;;;;;;;;;24.24;42.34;99547.56;5093570;28;20027;-35
2023/05/18 10:58:39;;;;;;;;;;;;;;;24.30;40.59;99551.00;5093838;28;19947;-35
2023/05/18 11:01:08;;;;;;;;;;;;;;;24.25;40.07;99554.59;5093411;28;20382;-36
2023/05/18 11:03:33;;;;;;;;;;;;;;;24.32;39.69;99548.78;5093708;28;19931;-37
2023/05/18 11:06:06;;;;;;;;;;;;;;;24.40;38.01;99548.06;5093590;28;19912;-37
2023/05/18 11:08:32;;;;;;;;;;;;;;;24.42;37.45;99556.75;5093141;28;19920;-36
2023/05/18 11:11:06;;;;;;;;;;;;;;;24.45;38.01;99561.59;5093368;28;19931;-36
2023/05/18 11:13:32;;;;;;;;;;;;;;;24.26;37.92;99555.41;5093359;28;20376;-36
2023/05/18 11:15:58;;;;;;;;;;;;;;;24.29;38.16;99557.53;5093319;28;19999;-35
2023/05/18 11:18:41;;;;;;;;;;;;;;;24.33;38.06;99569.41;5092838;28;20374;-36
2023/05/18 11:21:20;;;;;;;;;;;;;;;24.03;39.18;99557.97;5093530;28;19936;-36
2023/05/18 11:24:06;;;;;;;;;;;;;;;23.98;39.38;99571.63;5093160;28;19912;-35
2023/05/18 11:26:31;;;;;;;;;;;;;;;23.97;39.07;99570.84;5093136;28;19912;-36
2023/05/18 11:28:57;;;;;;;;;;;;;;;24.08;39.41;99566.03;5093251;28;20030;-36
2023/05/18 11:31:41;;;;;;;;;;;;;;;24.19;39.85;99564.75;5093147;28;19990;-35
2023/05/18 11:34:25;;;;;;;;;;;;;;;24.32;39.76;99567.81;5090574;28;19922;-36
2023/05/18 11:36:54;;;;;;;;;;;;;;;24.43;40.07;99568.41;5089224;28;19922;-36
2023/05/18 11:39:23;;;;;;;;;;;;;;;24.44;39.73;99576.28;5092647;28;20026;-36
2023/05/18 11:41:57;;;;;;;;;;;;;;;24.36;40.19;99568.81;5091111;28;19920;-36
2023/05/18 11:44:26;;;;;;;;;;;;;;;24.34;40.23;99569.13;5092942;28;20334;-36
2023/05/18 11:46:53;;;;;;;;;;;;;;;24.34;40.45;99581.91;5093019;28;19916;-36
2023/05/18 11:49:19;;;;;;;;;;;;;;;24.29;41.27;99582.00;5092821;28;20370;-36
2023/05/18 11:52:08;;;;;;;;;;;;;;;24.09;41.81;99589.41;5088612;28;19916;-36
2023/05/18 11:54:49;;;;;;;;;;;;;;;23.99;42.32;99586.84;5087009;28;20075;-36
2023/05/18 11:57:16;;;;;;;;;;;;;;;23.09;44.14;99586.72;5091372;28;19966;-37
2023/05/18 11:59:47;;;;;;;;;;;;;;;22.74;45.15;99588.72;5092260;28;19927;-36
2023/05/18 12:02:18;;;;;;;;;;;;;;;22.16;47.70;99594.94;5092889;28;20353;-35
2023/05/18 12:04:45;;;;;;;;;;;;;;;21.42;49.23;99594.88;5092612;28;19912;-35
2023/05/18 12:07:10;;;;;;;;;;;;;;;22.03;48.41;99588.28;5092891;28;19973;-36
2023/05/18 12:09:38;;;;;;;;;;;;;;;22.40;48.34;99584.16;5092569;28;20463;-36
2023/05/18 12:12:04;;;;;;;;;;;;;;;22.15;49.05;99590.59;5091830;28;19916;-36
2023/05/18 12:14:30;;;;;;;;;;;;;;;22.53;48.87;99595.47;5092613;28;20579;-36
2023/05/18 12:16:56;;;;;;;;;;;;;;;22.30;49.97;99599.75;5092732;28;19916;-36
2023/05/18 12:19:22;;;;;;;;;;;;;;;22.35;50.11;99597.78;5092686;28;19919;-35
2023/05/18 12:21:47;;;;;;;;;;;;;;;22.24;50.31;99602.47;5092882;28;20018;-35
2023/05/18 12:24:13;;;;;;;;;;;;;;;22.17;51.48;99606.59;5092635;28;19919;-36
2023/05/18 12:26:39;;;;;;;;;;;;;;;22.52;50.26;99610.91;5083778;28;19916;-36
2023/05/18 12:29:05;;;;;;;;;;;;;;;22.86;49.52;99601.88;5092092;28;19924;-36
2023/05/18 12:31:30;;;;;;;;;;;;;;;22.43;50.74;99607.22;5092311;28;19916;-36
2023/05/18 12:33:56;;;;;;;;;;;;;;;22.26;50.50;99607.63;5092217;28;19943;-36
2023/05/18 12:36:21;;;;;;;;;;;;;;;22.19;50.92;99602.50;5092455;28;19920;-37
2023/05/18 12:38:47;;;;;;;;;;;;;;;22.23;51.33;99600.03;5089633;28;19977;-37
2023/05/18 12:41:20;;;;;;;;;;;;;;;21.93;51.44;99614.63;5091414;28;19950;-36
2023/05/18 12:43:46;;;;;;;;;;;;;;;21.72;51.43;99608.53;5091815;28;19912;-35
2023/05/18 12:46:11;;;;;;;;;;;;;;;22.19;50.98;99607.91;5090269;28;19916;-36